createdAt,value
2017-03-11T00:00:53.028Z,0
2017-03-11T00:02:02.083Z,0
2017-03-11T00:03:11.101Z,0
2017-03-11T00:04:20.125Z,0
2017-03-11T00:05:29.530Z,0
2017-03-11T00:06:38.924Z,0
2017-03-11T00:07:48.340Z,0
2017-03-11T00:08:56.938Z,0
2017-03-11T00:10:05.888Z,0
2017-03-11T00:11:15.280Z,0
2017-03-11T00:12:24.296Z,0
2017-03-11T00:13:32.932Z,0
2017-03-11T00:14:41.552Z,0
2017-03-11T00:15:51.220Z,0
2017-03-11T00:17:00.509Z,0
2017-03-11T00:18:09.524Z,0
2017-03-11T00:19:18.145Z,0
2017-03-11T00:20:27.164Z,0
2017-03-11T00:21:36.567Z,0
2017-03-11T00:22:45.184Z,0
2017-03-11T00:23:53.791Z,0
2017-03-11T00:25:02.789Z,0
2017-03-11T00:26:12.432Z,0
2017-03-11T00:27:21.463Z,0
2017-03-11T00:28:30.856Z,0
2017-03-11T00:29:40.915Z,0
2017-03-11T00:30:50.325Z,0
2017-03-11T00:31:59.728Z,0
2017-03-11T00:33:09.251Z,0
2017-03-11T00:34:18.245Z,0
2017-03-11T00:35:27.663Z,0
2017-03-11T00:36:36.511Z,0
2017-03-11T00:37:45.122Z,0
2017-03-11T00:38:53.759Z,0
2017-03-11T00:40:03.178Z,0
2017-03-11T00:41:12.201Z,0
2017-03-11T00:42:20.811Z,0
2017-03-11T00:43:29.852Z,0
2017-03-11T00:44:38.884Z,0
2017-03-11T00:45:47.922Z,0
2017-03-11T00:46:57.670Z,0
2017-03-11T00:48:06.277Z,0
2017-03-11T00:49:15.287Z,0
2017-03-11T00:50:25.089Z,0
2017-03-11T00:51:34.488Z,0
2017-03-11T00:52:43.508Z,0
2017-03-11T00:53:52.512Z,0
2017-03-11T00:55:01.509Z,0
2017-03-11T00:56:10.102Z,0
2017-03-11T00:57:19.498Z,0
2017-03-11T00:58:28.912Z,0
2017-03-11T00:59:37.537Z,0
2017-03-11T01:00:46.578Z,0
2017-03-11T01:01:55.582Z,0
2017-03-11T01:03:04.582Z,0
2017-03-11T01:04:13.590Z,0
2017-03-11T01:05:22.182Z,0
2017-03-11T01:06:31.834Z,0
2017-03-11T01:07:40.685Z,0
2017-03-11T01:08:49.297Z,0
2017-03-11T01:09:58.051Z,0
2017-03-11T01:11:07.103Z,0
2017-03-11T01:12:16.113Z,0
2017-03-11T01:13:25.928Z,0
2017-03-11T01:14:34.927Z,0
2017-03-11T01:15:44.328Z,0
2017-03-11T01:16:53.342Z,0
2017-03-11T01:18:01.937Z,0
2017-03-11T01:19:10.947Z,0
2017-03-11T01:20:19.570Z,0
2017-03-11T01:21:28.567Z,0
2017-03-11T01:22:37.160Z,0
2017-03-11T01:23:46.148Z,0
2017-03-11T01:24:55.568Z,0
2017-03-11T01:26:04.382Z,0
2017-03-11T01:27:13.377Z,0
2017-03-11T01:28:22.400Z,0
2017-03-11T01:29:31.905Z,0
2017-03-11T01:30:41.082Z,0
2017-03-11T01:31:50.086Z,0
2017-03-11T01:32:59.500Z,0
2017-03-11T01:34:08.930Z,0
2017-03-11T01:35:18.335Z,0
2017-03-11T01:36:27.727Z,0
2017-03-11T01:37:36.380Z,0
2017-03-11T01:38:45.663Z,0
2017-03-11T01:39:54.657Z,0
2017-03-11T01:41:03.649Z,0
2017-03-11T01:42:12.252Z,0
2017-03-11T01:43:20.865Z,0
2017-03-11T01:44:29.861Z,0
2017-03-11T01:45:39.257Z,0
2017-03-11T01:46:47.969Z,0
2017-03-11T01:47:56.984Z,0
2017-03-11T01:49:06.066Z,0
2017-03-11T01:50:15.167Z,0
2017-03-11T01:51:24.986Z,0
2017-03-11T01:52:33.982Z,0
2017-03-11T01:53:42.592Z,0
2017-03-11T01:54:51.215Z,0
2017-03-11T01:56:00.218Z,0
2017-03-11T01:57:08.825Z,0
2017-03-11T01:58:17.432Z,0
2017-03-11T01:59:26.432Z,0
2017-03-11T02:00:35.850Z,0
2017-03-11T02:01:44.445Z,0
2017-03-11T02:02:53.047Z,0
2017-03-11T02:04:02.459Z,0
2017-03-11T02:05:11.765Z,0
2017-03-11T02:06:20.732Z,0
2017-03-11T02:07:29.326Z,0
2017-03-11T02:08:38.322Z,0
2017-03-11T02:09:46.912Z,0
2017-03-11T02:10:56.711Z,0
2017-03-11T02:12:06.513Z,0
2017-03-11T02:13:15.124Z,0
2017-03-11T02:14:24.141Z,0
2017-03-11T02:15:32.747Z,0
2017-03-11T02:16:41.544Z,0
2017-03-11T02:17:50.973Z,0
2017-03-11T02:19:00.000Z,0
2017-03-11T02:20:09.769Z,0
2017-03-11T02:21:18.914Z,0
2017-03-11T02:22:27.520Z,0
2017-03-11T02:23:36.520Z,0
2017-03-11T02:24:45.937Z,0
2017-03-11T02:25:54.931Z,0
2017-03-11T02:27:04.231Z,0
2017-03-11T02:28:14.110Z,0
2017-03-11T02:29:22.727Z,0
2017-03-11T02:30:31.323Z,0
2017-03-11T02:31:39.924Z,0
2017-03-11T02:32:48.970Z,0
2017-03-11T02:33:58.367Z,0
2017-03-11T02:35:07.356Z,0
2017-03-11T02:36:16.351Z,0
2017-03-11T02:37:24.946Z,0
2017-03-11T02:38:34.341Z,0
2017-03-11T02:39:42.957Z,0
2017-03-11T02:40:51.564Z,0
2017-03-11T02:42:00.972Z,0
2017-03-11T02:43:09.991Z,0
2017-03-11T02:44:19.784Z,0
2017-03-11T02:45:29.181Z,0
2017-03-11T02:46:38.196Z,0
2017-03-11T02:47:47.226Z,0
2017-03-11T02:48:56.217Z,0
2017-03-11T02:50:05.220Z,0
2017-03-11T02:51:14.625Z,0
2017-03-11T02:52:24.044Z,0
2017-03-11T02:53:32.660Z,0
2017-03-11T02:54:41.708Z,0
2017-03-11T02:55:50.717Z,0
2017-03-11T02:56:59.307Z,0
2017-03-11T02:58:08.117Z,0
2017-03-11T02:59:17.922Z,0
2017-03-11T03:00:27.333Z,0
2017-03-11T03:01:36.338Z,0
2017-03-11T03:02:45.735Z,0
2017-03-11T03:03:54.357Z,0
2017-03-11T03:05:03.385Z,0
2017-03-11T03:06:12.036Z,0
2017-03-11T03:07:21.470Z,0
2017-03-11T03:08:30.897Z,0
2017-03-11T03:09:39.536Z,0
2017-03-11T03:10:48.551Z,0
2017-03-11T03:11:57.967Z,0
2017-03-11T03:13:06.961Z,0
2017-03-11T03:14:15.553Z,0
2017-03-11T03:15:24.557Z,0
2017-03-11T03:16:33.153Z,0
2017-03-11T03:17:41.745Z,0
2017-03-11T03:18:50.763Z,0
2017-03-11T03:19:59.772Z,0
2017-03-11T03:21:09.180Z,0
2017-03-11T03:22:17.794Z,0
2017-03-11T03:23:26.385Z,0
2017-03-11T03:24:35.388Z,0
2017-03-11T03:25:44.417Z,0
2017-03-11T03:26:53.839Z,0
2017-03-11T03:28:02.449Z,0
2017-03-11T03:29:11.457Z,0
2017-03-11T03:30:20.087Z,0
2017-03-11T03:31:29.096Z,0
2017-03-11T03:32:37.681Z,0
2017-03-11T03:33:47.512Z,0
2017-03-11T03:34:56.108Z,0
2017-03-11T03:36:05.125Z,0
2017-03-11T03:37:13.737Z,0
2017-03-11T03:38:22.353Z,0
2017-03-11T03:39:31.754Z,0
2017-03-11T03:40:40.775Z,0
2017-03-11T03:41:49.390Z,0
2017-03-11T03:42:58.394Z,0
2017-03-11T03:44:07.786Z,0
2017-03-11T03:45:16.789Z,0
2017-03-11T03:46:26.188Z,0
2017-03-11T03:47:35.193Z,0
2017-03-11T03:48:43.806Z,0
2017-03-11T03:49:53.619Z,0
2017-03-11T03:51:02.208Z,0
2017-03-11T03:52:11.228Z,0
2017-03-11T03:53:19.840Z,0
2017-03-11T03:54:28.826Z,0
2017-03-11T03:55:37.821Z,0
2017-03-11T03:56:46.823Z,0
2017-03-11T03:57:56.632Z,0
2017-03-11T03:59:05.635Z,0
2017-03-11T04:00:14.228Z,0
2017-03-11T04:01:22.838Z,0
2017-03-11T04:02:31.869Z,0
2017-03-11T04:03:40.493Z,0
2017-03-11T04:04:49.921Z,0
2017-03-11T04:05:59.183Z,0
2017-03-11T04:07:08.604Z,0
2017-03-11T04:08:17.238Z,0
2017-03-11T04:09:25.857Z,0
2017-03-11T04:10:34.856Z,0
2017-03-11T04:11:43.862Z,0
2017-03-11T04:12:52.478Z,0
2017-03-11T04:14:01.477Z,0
2017-03-11T04:15:10.480Z,0
2017-03-11T04:16:19.085Z,0
2017-03-11T04:17:28.479Z,0
2017-03-11T04:18:37.083Z,0
2017-03-11T04:19:45.686Z,0
2017-03-11T04:20:54.698Z,0
2017-03-11T04:22:03.319Z,0
2017-03-11T04:23:12.333Z,0
2017-03-11T04:24:22.128Z,0
2017-03-11T04:25:31.116Z,0
2017-03-11T04:26:40.516Z,0
2017-03-11T04:27:49.118Z,0
2017-03-11T04:28:58.125Z,0
2017-03-11T04:30:07.145Z,0
2017-03-11T04:31:16.548Z,0
2017-03-11T04:32:25.542Z,0
2017-03-11T04:33:34.540Z,0
2017-03-11T04:34:43.563Z,0
2017-03-11T04:35:52.552Z,0
2017-03-11T04:37:02.195Z,0
2017-03-11T04:38:11.609Z,0
2017-03-11T04:39:20.599Z,0
2017-03-11T04:40:29.603Z,0
2017-03-11T04:41:39.804Z,0
2017-03-11T04:42:48.413Z,0
2017-03-11T04:43:58.219Z,0
2017-03-11T04:45:06.839Z,0
2017-03-11T04:46:16.237Z,0
2017-03-11T04:47:25.256Z,0
2017-03-11T04:48:34.275Z,0
2017-03-11T04:49:43.302Z,0
2017-03-11T04:50:52.295Z,0
2017-03-11T04:52:01.712Z,0
2017-03-11T04:53:10.305Z,0
2017-03-11T04:54:18.912Z,0
2017-03-11T04:55:27.912Z,0
2017-03-11T04:56:36.525Z,0
2017-03-11T04:57:45.132Z,0
2017-03-11T04:58:54.135Z,0
2017-03-11T05:00:03.531Z,0
2017-03-11T05:01:12.936Z,0
2017-03-11T05:02:21.942Z,0
2017-03-11T05:03:30.946Z,0
2017-03-11T05:04:40.341Z,0
2017-03-11T05:05:49.334Z,0
2017-03-11T05:06:57.931Z,0
2017-03-11T05:08:06.535Z,0
2017-03-11T05:09:15.156Z,0
2017-03-11T05:10:24.164Z,0
2017-03-11T05:11:33.186Z,0
2017-03-11T05:12:42.595Z,0
2017-03-11T05:13:51.230Z,0
2017-03-11T05:14:59.857Z,0
2017-03-11T05:16:08.489Z,0
2017-03-11T05:17:17.484Z,0
2017-03-11T05:18:26.078Z,0
2017-03-11T05:19:35.475Z,0
2017-03-11T05:20:44.087Z,0
2017-03-11T05:21:53.128Z,0
2017-03-11T05:23:02.544Z,0
2017-03-11T05:24:11.542Z,0
2017-03-11T05:25:20.136Z,0
2017-03-11T05:26:29.129Z,0
2017-03-11T05:27:38.925Z,0
2017-03-11T05:28:47.916Z,0
2017-03-11T05:29:56.548Z,0
2017-03-11T05:31:05.550Z,0
2017-03-11T05:32:14.542Z,0
2017-03-11T05:33:24.336Z,0
2017-03-11T05:34:32.933Z,0
2017-03-11T05:35:41.939Z,0
2017-03-11T05:36:50.530Z,0
2017-03-11T05:37:59.544Z,0
2017-03-11T05:39:08.571Z,0
2017-03-11T05:40:17.832Z,0
2017-03-11T05:41:26.851Z,0
2017-03-11T05:42:35.894Z,0
2017-03-11T05:43:44.902Z,0
2017-03-11T05:44:54.327Z,0
2017-03-11T05:46:02.924Z,0
2017-03-11T05:47:12.334Z,0
2017-03-11T05:48:20.953Z,0
2017-03-11T05:49:30.006Z,0
2017-03-11T05:50:39.004Z,0
2017-03-11T05:51:48.810Z,5
2017-03-11T05:52:57.827Z,5
2017-03-11T05:54:07.258Z,5
2017-03-11T05:55:16.281Z,5
2017-03-11T05:56:26.000Z,5
2017-03-11T05:57:34.641Z,5
2017-03-11T05:58:44.497Z,5
2017-03-11T05:59:53.900Z,10
2017-03-11T06:01:02.495Z,10
2017-03-11T06:02:12.290Z,10
2017-03-11T06:03:21.281Z,10
2017-03-11T06:04:31.086Z,15
2017-03-11T06:05:40.479Z,15
2017-03-11T06:06:49.084Z,15
2017-03-11T06:07:57.674Z,15
2017-03-11T06:09:06.678Z,20
2017-03-11T06:10:15.686Z,20
2017-03-11T06:11:24.296Z,20
2017-03-11T06:12:33.182Z,25
2017-03-11T06:13:42.204Z,25
2017-03-11T06:14:51.208Z,25
2017-03-11T06:16:01.036Z,30
2017-03-11T06:17:10.044Z,30
2017-03-11T06:18:19.060Z,30
2017-03-11T06:19:27.651Z,30
2017-03-11T06:20:36.295Z,35
2017-03-11T06:21:44.898Z,35
2017-03-11T06:22:54.333Z,35
2017-03-11T06:24:02.953Z,35
2017-03-11T06:25:12.383Z,40
2017-03-11T06:26:20.989Z,40
2017-03-11T06:27:30.411Z,45
2017-03-11T06:28:39.423Z,45
2017-03-11T06:29:48.014Z,50
2017-03-11T06:30:57.805Z,50
2017-03-11T06:32:06.793Z,50
2017-03-11T06:33:16.586Z,55
2017-03-11T06:34:25.601Z,55
2017-03-11T06:35:34.605Z,55
2017-03-11T06:36:43.997Z,60
2017-03-11T06:37:52.985Z,60
2017-03-11T06:39:01.979Z,60
2017-03-11T06:40:10.747Z,65
2017-03-11T06:41:19.365Z,65
2017-03-11T06:42:28.813Z,65
2017-03-11T06:43:37.827Z,65
2017-03-11T06:44:46.844Z,65
2017-03-11T06:45:55.459Z,70
2017-03-11T06:47:04.157Z,70
2017-03-11T06:48:13.578Z,70
2017-03-11T06:49:22.594Z,70
2017-03-11T06:50:32.034Z,70
2017-03-11T06:51:41.041Z,75
2017-03-11T06:52:50.047Z,75
2017-03-11T06:53:58.639Z,75
2017-03-11T06:55:07.654Z,75
2017-03-11T06:56:16.243Z,75
2017-03-11T06:57:24.842Z,80
2017-03-11T06:58:33.876Z,80
2017-03-11T06:59:42.475Z,80
2017-03-11T07:00:51.470Z,80
2017-03-11T07:02:00.065Z,85
2017-03-11T07:03:09.466Z,85
2017-03-11T07:04:19.511Z,85
2017-03-11T07:05:28.513Z,85
2017-03-11T07:06:37.112Z,90
2017-03-11T07:07:46.501Z,90
2017-03-11T07:08:55.900Z,90
2017-03-11T07:10:04.937Z,90
2017-03-11T07:11:13.936Z,95
2017-03-11T07:12:22.958Z,95
2017-03-11T07:13:31.568Z,95
2017-03-11T07:14:40.175Z,95
2017-03-11T07:15:49.987Z,95
2017-03-11T07:16:58.987Z,95
2017-03-11T07:18:07.982Z,95
2017-03-11T07:19:17.006Z,95
2017-03-11T07:20:26.011Z,100
2017-03-11T07:21:34.609Z,100
2017-03-11T07:22:43.637Z,100
2017-03-11T07:23:53.054Z,100
2017-03-11T07:25:02.866Z,105
2017-03-11T07:26:12.263Z,105
2017-03-11T07:27:20.856Z,105
2017-03-11T07:28:29.453Z,110
2017-03-11T07:29:38.466Z,110
2017-03-11T07:30:47.499Z,110
2017-03-11T07:31:56.541Z,115
2017-03-11T07:33:05.532Z,115
2017-03-11T07:34:14.577Z,115
2017-03-11T07:35:23.582Z,120
2017-03-11T07:36:32.975Z,120
2017-03-11T07:37:41.980Z,120
2017-03-11T07:38:50.576Z,120
2017-03-11T07:39:59.579Z,125
2017-03-11T07:41:08.185Z,125
2017-03-11T07:42:16.838Z,125
2017-03-11T07:43:25.855Z,125
2017-03-11T07:44:34.868Z,125
2017-03-11T07:45:43.864Z,125
2017-03-11T07:46:52.761Z,125
2017-03-11T07:48:02.153Z,125
2017-03-11T07:49:11.144Z,125
2017-03-11T07:50:19.764Z,130
2017-03-11T07:51:28.761Z,130
2017-03-11T07:52:37.774Z,130
2017-03-11T07:53:46.382Z,135
2017-03-11T07:54:56.180Z,140
2017-03-11T07:56:05.586Z,145
2017-03-11T07:57:15.245Z,145
2017-03-11T07:58:24.244Z,150
2017-03-11T07:59:33.250Z,150
2017-03-11T08:00:41.842Z,150
2017-03-11T08:01:50.836Z,150
2017-03-11T08:02:59.431Z,150
2017-03-11T08:04:08.426Z,150
2017-03-11T08:05:17.422Z,150
2017-03-11T08:06:26.065Z,150
2017-03-11T08:07:34.689Z,150
2017-03-11T08:08:43.707Z,150
2017-03-11T08:09:52.724Z,150
2017-03-11T08:11:01.725Z,150
2017-03-11T08:12:10.740Z,150
2017-03-11T08:13:19.733Z,150
2017-03-11T08:14:28.737Z,155
2017-03-11T08:15:37.768Z,155
2017-03-11T08:16:47.184Z,160
2017-03-11T08:17:56.989Z,165
2017-03-11T08:19:06.389Z,170
2017-03-11T08:20:15.392Z,175
2017-03-11T08:21:24.399Z,180
2017-03-11T08:22:33.396Z,180
2017-03-11T08:23:43.457Z,180
2017-03-11T08:24:52.091Z,185
2017-03-11T08:26:01.901Z,190
2017-03-11T08:27:11.304Z,190
2017-03-11T08:28:19.902Z,185
2017-03-11T08:29:28.530Z,180
2017-03-11T08:30:37.547Z,180
2017-03-11T08:31:46.554Z,175
2017-03-11T08:32:55.152Z,175
2017-03-11T08:34:03.847Z,175
2017-03-11T08:35:13.264Z,170
2017-03-11T08:36:21.879Z,170
2017-03-11T08:37:30.488Z,165
2017-03-11T08:38:39.445Z,165
2017-03-11T08:39:48.403Z,165
2017-03-11T08:40:57.958Z,165
2017-03-11T08:42:06.601Z,165
2017-03-11T08:43:15.750Z,165
2017-03-11T08:44:25.013Z,165
2017-03-11T08:45:33.625Z,165
2017-03-11T08:46:42.623Z,165
2017-03-11T08:47:51.215Z,165
2017-03-11T08:49:00.232Z,165
2017-03-11T08:50:09.236Z,165
2017-03-11T08:51:18.646Z,170
2017-03-11T08:52:27.257Z,165
2017-03-11T08:53:36.684Z,175
2017-03-11T08:54:45.932Z,175
2017-03-11T08:55:54.934Z,175
2017-03-11T08:57:03.567Z,180
2017-03-11T08:58:12.961Z,185
2017-03-11T08:59:22.381Z,190
2017-03-11T09:00:31.386Z,195
2017-03-11T09:01:39.981Z,200
2017-03-11T09:02:48.983Z,205
2017-03-11T09:03:57.818Z,210
2017-03-11T09:05:06.688Z,215
2017-03-11T09:06:15.716Z,215
2017-03-11T09:07:24.355Z,215
2017-03-11T09:08:33.798Z,210
2017-03-11T09:09:42.795Z,205
2017-03-11T09:10:51.806Z,205
2017-03-11T09:12:00.426Z,205
2017-03-11T09:13:09.042Z,205
2017-03-11T09:14:17.656Z,205
2017-03-11T09:15:26.668Z,205
2017-03-11T09:16:35.669Z,210
2017-03-11T09:17:44.278Z,210
2017-03-11T09:18:53.310Z,215
2017-03-11T09:20:02.306Z,215
2017-03-11T09:21:10.908Z,215
2017-03-11T09:22:19.922Z,220
2017-03-11T09:23:28.943Z,220
2017-03-11T09:24:37.553Z,220
2017-03-11T09:25:46.200Z,225
2017-03-11T09:26:55.614Z,225
2017-03-11T09:28:05.017Z,225
2017-03-11T09:29:14.053Z,225
2017-03-11T09:30:23.067Z,225
2017-03-11T09:31:32.109Z,230
2017-03-11T09:32:41.103Z,230
2017-03-11T09:33:50.129Z,230
2017-03-11T09:34:59.139Z,230
2017-03-11T09:36:08.156Z,230
2017-03-11T09:37:17.181Z,235
2017-03-11T09:38:25.785Z,235
2017-03-11T09:39:35.203Z,240
2017-03-11T09:40:44.214Z,245
2017-03-11T09:41:53.218Z,245
2017-03-11T09:43:02.643Z,245
2017-03-11T09:44:12.043Z,245
2017-03-11T09:45:21.440Z,245
2017-03-11T09:46:30.051Z,245
2017-03-11T09:47:38.791Z,245
2017-03-11T09:48:47.484Z,250
2017-03-11T09:49:56.924Z,255
2017-03-11T09:51:05.550Z,260
2017-03-11T09:52:15.065Z,260
2017-03-11T09:53:24.506Z,265
2017-03-11T09:54:33.540Z,265
2017-03-11T09:55:42.567Z,270
2017-03-11T09:56:51.606Z,265
2017-03-11T09:58:00.722Z,260
2017-03-11T09:59:09.968Z,260
2017-03-11T10:00:19.620Z,260
2017-03-11T10:01:29.178Z,260
2017-03-11T10:02:38.293Z,255
2017-03-11T10:03:46.984Z,255
2017-03-11T10:04:56.855Z,260
2017-03-11T10:06:05.499Z,260
2017-03-11T10:07:14.139Z,260
2017-03-11T10:08:23.692Z,260
2017-03-11T10:09:32.799Z,255
2017-03-11T10:10:41.813Z,255
2017-03-11T10:11:50.817Z,250
2017-03-11T10:12:59.494Z,250
2017-03-11T10:14:08.489Z,250
2017-03-11T10:15:17.484Z,250
2017-03-11T10:16:30.802Z,255
2017-03-11T10:17:39.801Z,255
2017-03-11T10:18:48.808Z,255
2017-03-11T10:19:58.655Z,255
2017-03-11T10:21:08.182Z,260
2017-03-11T10:22:16.922Z,265
2017-03-11T10:23:26.047Z,260
2017-03-11T10:24:34.647Z,260
2017-03-11T10:25:44.061Z,260
2017-03-11T10:26:53.087Z,260
2017-03-11T10:28:02.331Z,265
2017-03-11T10:29:10.985Z,265
2017-03-11T10:30:20.382Z,265
2017-03-11T10:31:29.400Z,270
2017-03-11T10:32:39.214Z,270
2017-03-11T10:33:48.607Z,275
2017-03-11T10:34:57.687Z,280
2017-03-11T10:36:06.609Z,285
2017-03-11T10:37:15.619Z,290
2017-03-11T10:38:24.627Z,295
2017-03-11T10:39:33.234Z,300
2017-03-11T10:40:42.253Z,300
2017-03-11T10:41:50.855Z,300
2017-03-11T10:43:00.256Z,300
2017-03-11T10:44:09.276Z,305
2017-03-11T10:45:18.284Z,305
2017-03-11T10:46:27.310Z,305
2017-03-11T10:47:35.904Z,310
2017-03-11T10:48:45.712Z,305
2017-03-11T10:49:55.161Z,305
2017-03-11T10:51:04.167Z,310
2017-03-11T10:52:13.170Z,310
2017-03-11T10:53:21.779Z,315
2017-03-11T10:54:30.417Z,310
2017-03-11T10:55:39.424Z,310
2017-03-11T10:56:48.449Z,310
2017-03-11T10:57:57.716Z,315
2017-03-11T10:59:06.346Z,315
2017-03-11T11:00:15.353Z,320
2017-03-11T11:01:24.360Z,325
2017-03-11T11:02:33.371Z,325
2017-03-11T11:03:43.176Z,325
2017-03-11T11:04:52.176Z,330
2017-03-11T11:06:01.176Z,330
2017-03-11T11:07:09.788Z,335
2017-03-11T11:08:19.590Z,335
2017-03-11T11:09:28.602Z,340
2017-03-11T11:10:37.207Z,345
2017-03-11T11:11:46.258Z,345
2017-03-11T11:12:54.870Z,350
2017-03-11T11:14:04.542Z,350
2017-03-11T11:15:13.557Z,350
2017-03-11T11:16:22.175Z,350
2017-03-11T11:17:31.336Z,350
2017-03-11T11:18:40.454Z,355
2017-03-11T11:19:49.452Z,355
2017-03-11T11:20:58.072Z,355
2017-03-11T11:22:07.477Z,350
2017-03-11T11:23:16.899Z,350
2017-03-11T11:24:25.920Z,350
2017-03-11T11:25:34.972Z,350
2017-03-11T11:26:43.986Z,345
2017-03-11T11:27:52.624Z,350
2017-03-11T11:29:01.228Z,345
2017-03-11T11:30:10.248Z,345
2017-03-11T11:31:19.658Z,350
2017-03-11T11:32:28.280Z,350
2017-03-11T11:33:36.904Z,350
2017-03-11T11:34:45.525Z,350
2017-03-11T11:35:54.592Z,350
2017-03-11T11:37:03.635Z,350
2017-03-11T11:38:12.669Z,350
2017-03-11T11:39:21.280Z,350
2017-03-11T11:40:30.328Z,350
2017-03-11T11:41:38.934Z,350
2017-03-11T11:42:47.996Z,350
2017-03-11T11:43:57.025Z,360
2017-03-11T11:45:06.054Z,360
2017-03-11T11:46:15.881Z,355
2017-03-11T11:47:25.316Z,360
2017-03-11T11:48:34.319Z,365
2017-03-11T11:49:42.945Z,360
2017-03-11T11:50:52.377Z,360
2017-03-11T11:52:01.405Z,360
2017-03-11T11:53:10.807Z,355
2017-03-11T11:54:20.225Z,355
2017-03-11T11:55:29.246Z,355
2017-03-11T11:56:37.849Z,355
2017-03-11T11:57:46.451Z,360
2017-03-11T11:58:55.097Z,350
2017-03-11T12:00:04.144Z,355
2017-03-11T12:01:13.172Z,350
2017-03-11T12:02:21.807Z,350
2017-03-11T12:03:31.212Z,350
2017-03-11T12:04:40.883Z,350
2017-03-11T12:05:50.686Z,355
2017-03-11T12:06:59.682Z,350
2017-03-11T12:08:08.721Z,355
2017-03-11T12:09:17.336Z,350
2017-03-11T12:10:25.961Z,350
2017-03-11T12:11:35.030Z,350
2017-03-11T12:12:44.491Z,350
2017-03-11T12:13:53.187Z,350
2017-03-11T12:15:06.036Z,350
2017-03-11T12:16:15.070Z,350
2017-03-11T12:17:24.121Z,355
2017-03-11T12:18:33.593Z,355
2017-03-11T12:19:42.222Z,355
2017-03-11T12:20:51.229Z,355
2017-03-11T12:22:00.257Z,355
2017-03-11T12:23:09.271Z,355
2017-03-11T12:24:18.280Z,355
2017-03-11T12:25:30.277Z,360
2017-03-11T12:26:39.377Z,355
2017-03-11T12:27:48.408Z,355
2017-03-11T12:28:57.490Z,355
2017-03-11T12:30:06.947Z,355
2017-03-11T12:31:15.596Z,355
2017-03-11T12:32:25.106Z,360
2017-03-11T12:33:33.781Z,360
2017-03-11T12:34:42.825Z,365
2017-03-11T12:35:52.015Z,365
2017-03-11T12:37:01.285Z,365
2017-03-11T12:38:10.346Z,365
2017-03-11T12:39:19.428Z,365
2017-03-11T12:40:28.468Z,365
2017-03-11T12:41:37.908Z,365
2017-03-11T12:42:46.948Z,365
2017-03-11T12:43:56.838Z,365
2017-03-11T12:45:05.501Z,365
2017-03-11T12:46:14.581Z,365
2017-03-11T12:47:23.192Z,365
2017-03-11T12:48:32.230Z,365
2017-03-11T12:49:41.321Z,365
2017-03-11T12:50:49.959Z,365
2017-03-11T12:51:59.086Z,365
2017-03-11T12:53:07.789Z,365
2017-03-11T12:54:16.442Z,360
2017-03-11T12:55:25.451Z,360
2017-03-11T12:56:34.489Z,355
2017-03-11T12:57:43.494Z,355
2017-03-11T12:58:52.525Z,345
2017-03-11T13:00:01.950Z,345
2017-03-11T13:01:10.966Z,340
2017-03-11T13:02:19.568Z,335
2017-03-11T13:03:28.187Z,330
2017-03-11T13:04:37.591Z,325
2017-03-11T13:05:46.605Z,325
2017-03-11T13:06:56.061Z,315
2017-03-11T13:08:04.686Z,310
2017-03-11T13:09:13.711Z,305
2017-03-11T13:10:22.368Z,300
2017-03-11T13:11:31.396Z,300
2017-03-11T13:12:40.414Z,300
2017-03-11T13:13:49.868Z,300
2017-03-11T13:14:59.278Z,300
2017-03-11T13:16:08.852Z,295
2017-03-11T13:17:18.319Z,295
2017-03-11T13:18:26.923Z,295
2017-03-11T13:19:35.953Z,290
2017-03-11T13:20:44.968Z,290
2017-03-11T13:21:53.583Z,285
2017-03-11T13:23:02.602Z,285
2017-03-11T13:24:11.630Z,285
2017-03-11T13:25:20.645Z,280
2017-03-11T13:26:30.050Z,275
2017-03-11T13:27:39.703Z,270
2017-03-11T13:28:49.505Z,270
2017-03-11T13:29:58.511Z,275
2017-03-11T13:31:07.109Z,275
2017-03-11T13:32:16.121Z,275
2017-03-11T13:33:25.531Z,280
2017-03-11T13:34:34.539Z,275
2017-03-11T13:35:43.563Z,270
2017-03-11T13:36:52.580Z,270
2017-03-11T13:38:01.601Z,270
2017-03-11T13:39:10.203Z,270
2017-03-11T13:40:18.850Z,275
2017-03-11T13:41:27.457Z,275
2017-03-11T13:42:36.121Z,275
2017-03-11T13:43:44.733Z,275
2017-03-11T13:44:53.350Z,270
2017-03-11T13:46:02.360Z,275
2017-03-11T13:47:11.360Z,270
2017-03-11T13:48:20.622Z,270
2017-03-11T13:49:29.812Z,270
2017-03-11T13:50:39.570Z,265
2017-03-11T13:51:48.989Z,260
2017-03-11T13:52:58.007Z,255
2017-03-11T13:54:07.018Z,255
2017-03-11T13:55:19.175Z,255
2017-03-11T13:56:28.752Z,255
2017-03-11T13:57:37.831Z,255
2017-03-11T13:58:46.839Z,255
2017-03-11T13:59:55.443Z,255
2017-03-11T14:01:04.853Z,255
2017-03-11T14:02:14.250Z,250
2017-03-11T14:03:23.650Z,250
2017-03-11T14:04:33.088Z,245
2017-03-11T14:05:42.117Z,235
2017-03-11T14:06:51.127Z,235
2017-03-11T14:07:59.723Z,230
2017-03-11T14:09:09.125Z,225
2017-03-11T14:10:19.369Z,220
2017-03-11T14:11:28.377Z,220
2017-03-11T14:12:37.393Z,220
2017-03-11T14:13:46.816Z,215
2017-03-11T14:14:55.848Z,215
2017-03-11T14:16:04.873Z,210
2017-03-11T14:17:14.285Z,210
2017-03-11T14:18:23.723Z,210
2017-03-11T14:19:32.393Z,210
2017-03-11T14:20:41.403Z,210
2017-03-11T14:21:50.806Z,210
2017-03-11T14:22:59.841Z,210
2017-03-11T14:24:09.663Z,210
2017-03-11T14:25:18.662Z,205
2017-03-11T14:26:27.670Z,205
2017-03-11T14:27:36.276Z,205
2017-03-11T14:28:45.294Z,210
2017-03-11T14:29:54.296Z,205
2017-03-11T14:31:04.362Z,205
2017-03-11T14:32:12.979Z,200
2017-03-11T14:33:22.001Z,195
2017-03-11T14:34:31.013Z,190
2017-03-11T14:35:40.414Z,190
2017-03-11T14:36:49.439Z,185
2017-03-11T14:37:58.048Z,180
2017-03-11T14:39:06.654Z,175
2017-03-11T14:40:15.284Z,170
2017-03-11T14:41:25.382Z,170
2017-03-11T14:42:34.783Z,170
2017-03-11T14:43:44.213Z,175
2017-03-11T14:44:52.822Z,165
2017-03-11T14:46:02.638Z,165
2017-03-11T14:47:11.646Z,160
2017-03-11T14:48:21.055Z,160
2017-03-11T14:49:29.657Z,155
2017-03-11T14:50:39.478Z,150
2017-03-11T14:51:48.922Z,150
2017-03-11T14:52:57.530Z,145
2017-03-11T14:54:06.547Z,140
2017-03-11T14:55:16.037Z,140
2017-03-11T14:56:24.760Z,140
2017-03-11T14:57:33.786Z,140
2017-03-11T14:58:42.794Z,140
2017-03-11T14:59:52.607Z,140
2017-03-11T15:01:02.439Z,140
2017-03-11T15:02:12.496Z,140
2017-03-11T15:03:21.152Z,140
2017-03-11T15:04:30.155Z,145
2017-03-11T15:05:38.864Z,145
2017-03-11T15:06:47.481Z,145
2017-03-11T15:07:56.252Z,150
2017-03-11T15:09:04.876Z,155
2017-03-11T15:10:13.880Z,150
2017-03-11T15:11:22.881Z,150
2017-03-11T15:12:31.984Z,155
2017-03-11T15:13:41.020Z,155
2017-03-11T15:14:49.661Z,155
2017-03-11T15:15:59.472Z,155
2017-03-11T15:17:08.078Z,160
2017-03-11T15:18:17.232Z,160
2017-03-11T15:19:26.233Z,160
2017-03-11T15:20:35.638Z,160
2017-03-11T15:21:44.643Z,160
2017-03-11T15:22:53.666Z,165
2017-03-11T15:24:03.473Z,165
2017-03-11T15:25:12.488Z,165
2017-03-11T15:26:21.209Z,165
2017-03-11T15:27:30.234Z,165
2017-03-11T15:28:39.831Z,165
2017-03-11T15:29:48.838Z,165
2017-03-11T15:30:57.456Z,165
2017-03-11T15:32:06.081Z,165
2017-03-11T15:33:15.090Z,165
2017-03-11T15:34:23.694Z,165
2017-03-11T15:35:33.134Z,165
2017-03-11T15:36:42.953Z,165
2017-03-11T15:37:51.982Z,165
2017-03-11T15:39:01.417Z,160
2017-03-11T15:40:11.218Z,160
2017-03-11T15:41:20.625Z,160
2017-03-11T15:42:29.672Z,155
2017-03-11T15:43:39.099Z,155
2017-03-11T15:44:48.097Z,155
2017-03-11T15:45:57.123Z,150
2017-03-11T15:47:06.149Z,150
2017-03-11T15:48:15.570Z,145
2017-03-11T15:49:24.178Z,145
2017-03-11T15:50:33.185Z,140
2017-03-11T15:51:42.236Z,140
2017-03-11T15:52:50.839Z,135
2017-03-11T15:54:00.289Z,135
2017-03-11T15:55:09.290Z,130
2017-03-11T15:56:18.296Z,130
2017-03-11T15:58:36.112Z,120
2017-03-11T15:59:45.544Z,120
2017-03-11T16:00:55.376Z,115
2017-03-11T16:02:04.798Z,115
2017-03-11T16:03:17.259Z,115
2017-03-11T16:04:26.271Z,110
2017-03-11T16:05:35.278Z,110
2017-03-11T16:06:45.083Z,110
2017-03-11T16:07:54.115Z,105
2017-03-11T16:09:03.561Z,105
2017-03-11T16:10:12.565Z,100
2017-03-11T16:11:21.985Z,100
2017-03-11T16:12:31.404Z,95
2017-03-11T16:13:40.416Z,95
2017-03-11T16:14:49.828Z,90
2017-03-11T16:15:58.843Z,90
2017-03-11T16:17:08.266Z,90
2017-03-11T16:18:17.281Z,90
2017-03-11T16:19:25.898Z,90
2017-03-11T16:20:34.914Z,85